sensor_id;sensor_type;location;lat;lon;timestamp;pressure;altitude;pressure_sealevel;temperature;humidity
73594;BME280;64760;53.404;23.498;2023-07-31T07:00:17;98899.06;;;23.24;64.91
73594;BME280;64760;53.404;23.498;2023-07-31T07:02:44;98900.94;;;23.10;65.16
73594;BME280;64760;53.404;23.498;2023-07-31T07:05:10;98897.78;;;23.03;64.85
73594;BME280;64760;53.404;23.498;2023-07-31T07:07:36;98908.25;;;23.47;63.24
73594;BME280;64760;53.404;23.498;2023-07-31T07:10:03;98892.88;;;23.51;63.25
73594;BME280;64760;53.404;23.498;2023-07-31T07:12:31;98893.22;;;23.76;61.86
73594;BME280;64760;53.404;23.498;2023-07-31T07:14:57;98900.47;;;23.54;61.90
73594;BME280;64760;53.404;23.498;2023-07-31T07:17:25;98902.38;;;23.53;62.83
73594;BME280;64760;53.404;23.498;2023-07-31T07:19:51;98905.25;;;23.48;63.04
73594;BME280;64760;53.404;23.498;2023-07-31T07:22:18;98903.34;;;23.90;62.09
73594;BME280;64760;53.404;23.498;2023-07-31T07:24:44;98904.97;;;23.63;62.29
73594;BME280;64760;53.404;23.498;2023-07-31T07:27:10;98902.84;;;23.74;60.92
73594;BME280;64760;53.404;23.498;2023-07-31T07:29:38;98892.00;;;23.82;60.36
73594;BME280;64760;53.404;23.498;2023-07-31T07:32:05;98890.44;;;23.49;61.10
73594;BME280;64760;53.404;23.498;2023-07-31T07:34:31;98887.84;;;23.99;57.84
73594;BME280;64760;53.404;23.498;2023-07-31T07:36:57;98890.44;;;23.49;59.63
73594;BME280;64760;53.404;23.498;2023-07-31T07:39:23;98893.81;;;24.42;58.32
73594;BME280;64760;53.404;23.498;2023-07-31T07:41:49;98887.22;;;24.29;54.74
73594;BME280;64760;53.404;23.498;2023-07-31T07:44:15;98893.31;;;24.12;57.04
73594;BME280;64760;53.404;23.498;2023-07-31T07:46:42;98888.75;;;24.35;57.02
73594;BME280;64760;53.404;23.498;2023-07-31T07:49:08;98892.25;;;24.49;56.10
73594;BME280;64760;53.404;23.498;2023-07-31T07:51:34;98897.59;;;24.32;56.61
73594;BME280;64760;53.404;23.498;2023-07-31T07:54:00;98911.88;;;24.02;55.81
73594;BME280;64760;53.404;23.498;2023-07-31T07:56:27;98908.94;;;24.25;54.95
73594;BME280;64760;53.404;23.498;2023-07-31T07:58:54;98912.16;;;24.41;54.04
73594;BME280;64760;53.404;23.498;2023-07-31T08:01:20;98914.53;;;24.34;56.29
73594;BME280;64760;53.404;23.498;2023-07-31T08:03:47;98924.28;;;24.40;53.78
73594;BME280;64760;53.404;23.498;2023-07-31T08:06:14;98916.16;;;24.21;54.28
73594;BME280;64760;53.404;23.498;2023-07-31T08:08:40;98924.81;;;25.00;51.84
73594;BME280;64760;53.404;23.498;2023-07-31T08:11:07;98920.97;;;25.01;50.95
73594;BME280;64760;53.404;23.498;2023-07-31T08:13:33;98926.78;;;24.50;53.10
73594;BME280;64760;53.404;23.498;2023-07-31T08:16:00;98927.13;;;25.29;51.63
73594;BME280;64760;53.404;23.498;2023-07-31T08:18:26;98925.72;;;25.54;51.06
73594;BME280;64760;53.404;23.498;2023-07-31T08:20:52;98935.50;;;25.24;50.20
73594;BME280;64760;53.404;23.498;2023-07-31T08:23:18;98931.91;;;25.15;50.66
73594;BME280;64760;53.404;23.498;2023-07-31T08:25:45;98919.56;;;25.04;51.73
73594;BME280;64760;53.404;23.498;2023-07-31T08:28:12;98925.66;;;25.67;50.23
73594;BME280;64760;53.404;23.498;2023-07-31T08:30:38;98926.81;;;26.14;49.02
73594;BME280;64760;53.404;23.498;2023-07-31T08:33:04;98925.47;;;26.03;48.47
73594;BME280;64760;53.404;23.498;2023-07-31T08:35:31;98922.41;;;26.05;48.48
73594;BME280;64760;53.404;23.498;2023-07-31T08:37:57;98921.16;;;26.11;48.79
73594;BME280;64760;53.404;23.498;2023-07-31T08:40:23;98924.47;;;26.30;47.42
73594;BME280;64760;53.404;23.498;2023-07-31T08:42:52;98922.09;;;26.54;46.62
73594;BME280;64760;53.404;23.498;2023-07-31T08:45:20;98927.59;;;26.72;47.68
73594;BME280;64760;53.404;23.498;2023-07-31T08:47:48;98916.69;;;26.32;48.33
73594;BME280;64760;53.404;23.498;2023-07-31T08:50:17;98920.94;;;26.55;48.08
73594;BME280;64760;53.404;23.498;2023-07-31T08:52:45;98916.66;;;26.97;45.86
73594;BME280;64760;53.404;23.498;2023-07-31T08:55:11;98929.75;;;27.26;44.50
73594;BME280;64760;53.404;23.498;2023-07-31T08:57:38;98924.53;;;26.82;44.02
73594;BME280;64760;53.404;23.498;2023-07-31T09:00:07;98918.03;;;26.60;44.90
73594;BME280;64760;53.404;23.498;2023-07-31T09:02:56;98925.50;;;26.12;46.38
73594;BME280;64760;53.404;23.498;2023-07-31T09:05:23;98911.22;;;26.41;45.65
73594;BME280;64760;53.404;23.498;2023-07-31T09:07:50;98909.31;;;26.50;42.89
73594;BME280;64760;53.404;23.498;2023-07-31T09:10:17;98915.63;;;26.59;45.33
73594;BME280;64760;53.404;23.498;2023-07-31T09:12:43;98907.97;;;25.91;42.78
73594;BME280;64760;53.404;23.498;2023-07-31T09:15:11;98923.66;;;25.37;44.73
73594;BME280;64760;53.404;23.498;2023-07-31T09:17:37;98920.63;;;25.69;43.84
73594;BME280;64760;53.404;23.498;2023-07-31T09:20:20;98918.91;;;25.51;44.64
73594;BME280;64760;53.404;23.498;2023-07-31T09:22:48;98901.72;;;25.99;42.26
73594;BME280;64760;53.404;23.498;2023-07-31T09:28:01;98899.59;;;26.35;44.37
73594;BME280;64760;53.404;23.498;2023-07-31T09:30:28;98900.03;;;26.29;43.32
73594;BME280;64760;53.404;23.498;2023-07-31T09:33:04;98897.69;;;26.96;42.81
73594;BME280;64760;53.404;23.498;2023-07-31T09:35:34;98916.16;;;27.04;42.85
73594;BME280;64760;53.404;23.498;2023-07-31T09:38:05;98912.88;;;26.68;43.22
73594;BME280;64760;53.404;23.498;2023-07-31T09:40:33;98909.44;;;26.45;45.16
73594;BME280;64760;53.404;23.498;2023-07-31T09:43:02;98905.72;;;25.93;46.83
73594;BME280;64760;53.404;23.498;2023-07-31T09:45:30;98909.75;;;26.26;47.18
73594;BME280;64760;53.404;23.498;2023-07-31T09:47:56;98903.69;;;26.07;46.07
73594;BME280;64760;53.404;23.498;2023-07-31T09:50:24;98896.41;;;26.11;45.74
73594;BME280;64760;53.404;23.498;2023-07-31T09:52:51;98903.13;;;26.36;44.67
73594;BME280;64760;53.404;23.498;2023-07-31T09:55:18;98902.44;;;26.22;43.70
73594;BME280;64760;53.404;23.498;2023-07-31T09:57:48;98908.44;;;26.32;41.61
73594;BME280;64760;53.404;23.498;2023-07-31T10:00:17;98899.78;;;26.47;41.21
73594;BME280;64760;53.404;23.498;2023-07-31T10:02:45;98923.53;;;26.04;42.94
73594;BME280;64760;53.404;23.498;2023-07-31T10:05:14;98902.19;;;26.49;41.16
73594;BME280;64760;53.404;23.498;2023-07-31T10:07:52;98900.59;;;26.74;40.89
73594;BME280;64760;53.404;23.498;2023-07-31T10:10:21;98907.34;;;26.42;41.84
73594;BME280;64760;53.404;23.498;2023-07-31T10:12:48;98911.88;;;26.46;41.30
73594;BME280;64760;53.404;23.498;2023-07-31T10:15:15;98909.13;;;25.98;40.90
73594;BME280;64760;53.404;23.498;2023-07-31T10:17:42;98906.06;;;26.39;38.57
73594;BME280;64760;53.404;23.498;2023-07-31T10:20:09;98905.22;;;25.91;40.01
73594;BME280;64760;53.404;23.498;2023-07-31T10:22:36;98898.28;;;26.41;39.98
73594;BME280;64760;53.404;23.498;2023-07-31T10:25:03;98907.38;;;26.50;39.65
73594;BME280;64760;53.404;23.498;2023-07-31T10:27:29;98912.06;;;26.50;39.20
73594;BME280;64760;53.404;23.498;2023-07-31T10:29:57;98899.59;;;26.35;39.86
73594;BME280;64760;53.404;23.498;2023-07-31T10:32:24;98898.53;;;26.14;39.02
73594;BME280;64760;53.404;23.498;2023-07-31T10:34:51;98887.31;;;26.58;38.90
73594;BME280;64760;53.404;23.498;2023-07-31T10:37:36;98901.53;;;26.35;39.28
73594;BME280;64760;53.404;23.498;2023-07-31T10:40:05;98906.03;;;26.31;39.85
73594;BME280;64760;53.404;23.498;2023-07-31T10:42:35;98907.19;;;26.55;40.64
73594;BME280;64760;53.404;23.498;2023-07-31T10:45:07;98900.53;;;26.31;39.54
73594;BME280;64760;53.404;23.498;2023-07-31T10:47:42;98909.75;;;26.26;40.76
73594;BME280;64760;53.404;23.498;2023-07-31T10:52:37;98913.94;;;25.31;42.50
73594;BME280;64760;53.404;23.498;2023-07-31T10:55:25;98912.00;;;25.32;42.42
73594;BME280;64760;53.404;23.498;2023-07-31T10:57:52;98902.34;;;25.65;41.20
73594;BME280;64760;53.404;23.498;2023-07-31T11:00:29;98911.09;;;25.67;41.80
73594;BME280;64760;53.404;23.498;2023-07-31T11:06:01;98917.66;;;25.57;42.92
73594;BME280;64760;53.404;23.498;2023-07-31T11:08:34;98915.91;;;25.39;44.42
73594;BME280;64760;53.404;23.498;2023-07-31T11:11:18;98900.19;;;25.84;41.99
73594;BME280;64760;53.404;23.498;2023-07-31T11:13:50;98913.88;;;26.15;40.84
73594;BME280;64760;53.404;23.498;2023-07-31T11:16:23;98915.28;;;25.64;41.96
73594;BME280;64760;53.404;23.498;2023-07-31T11:18:50;98905.63;;;25.67;42.78
73594;BME280;64760;53.404;23.498;2023-07-31T11:21:22;98905.66;;;26.15;41.66
73594;BME280;64760;53.404;23.498;2023-07-31T11:23:51;98898.75;;;25.87;42.85
73594;BME280;64760;53.404;23.498;2023-07-31T11:26:18;98897.50;;;26.01;42.04
73594;BME280;64760;53.404;23.498;2023-07-31T11:28:46;98893.78;;;26.62;39.87
73594;BME280;64760;53.404;23.498;2023-07-31T11:31:13;98873.69;;;26.36;41.16
73594;BME280;64760;53.404;23.498;2023-07-31T11:33:39;98896.41;;;27.11;39.65
73594;BME280;64760;53.404;23.498;2023-07-31T11:36:14;98904.63;;;27.19;39.02
73594;BME280;64760;53.404;23.498;2023-07-31T11:38:40;98899.94;;;26.77;39.15
73594;BME280;64760;53.404;23.498;2023-07-31T11:41:07;98895.66;;;26.28;40.70
73594;BME280;64760;53.404;23.498;2023-07-31T11:43:33;98886.97;;;25.86;40.97
73594;BME280;64760;53.404;23.498;2023-07-31T11:46:00;98896.81;;;26.27;38.55
73594;BME280;64760;53.404;23.498;2023-07-31T11:48:33;98898.94;;;25.90;38.76
73594;BME280;64760;53.404;23.498;2023-07-31T11:51:06;98898.63;;;26.00;38.06
73594;BME280;64760;53.404;23.498;2023-07-31T11:53:38;98887.81;;;26.04;38.89
73594;BME280;64760;53.404;23.498;2023-07-31T11:56:10;98893.44;;;26.38;38.26
73594;BME280;64760;53.404;23.498;2023-07-31T11:58:38;98895.66;;;26.19;38.86
73594;BME280;64760;53.404;23.498;2023-07-31T12:01:05;98889.09;;;26.80;37.17
73594;BME280;64760;53.404;23.498;2023-07-31T12:03:32;98888.31;;;26.62;36.67
73594;BME280;64760;53.404;23.498;2023-07-31T12:05:59;98884.41;;;26.63;37.27
73594;BME280;64760;53.404;23.498;2023-07-31T12:08:26;98897.97;;;26.60;37.36
73594;BME280;64760;53.404;23.498;2023-07-31T12:10:53;98888.25;;;26.37;37.62
73594;BME280;64760;53.404;23.498;2023-07-31T12:13:22;98906.00;;;26.22;36.70
73594;BME280;64760;53.404;23.498;2023-07-31T12:15:54;98905.44;;;26.03;37.93
73594;BME280;64760;53.404;23.498;2023-07-31T12:18:21;98900.06;;;26.37;36.92
73594;BME280;64760;53.404;23.498;2023-07-31T12:20:59;98884.03;;;26.22;36.83
73594;BME280;64760;53.404;23.498;2023-07-31T12:23:27;98886.47;;;26.41;37.28
73594;BME280;64760;53.404;23.498;2023-07-31T12:28:27;98886.53;;;26.84;36.56
73594;BME280;64760;53.404;23.498;2023-07-31T12:30:57;98891.69;;;26.51;37.43
73594;BME280;64760;53.404;23.498;2023-07-31T12:33:31;98887.94;;;26.38;37.36
73594;BME280;64760;53.404;23.498;2023-07-31T12:35:57;98885.75;;;26.09;38.17
73594;BME280;64760;53.404;23.498;2023-07-31T12:38:23;98897.88;;;26.17;37.84
73594;BME280;64760;53.404;23.498;2023-07-31T12:40:50;98882.69;;;26.11;36.86
73594;BME280;64760;53.404;23.498;2023-07-31T12:43:16;98874.31;;;25.46;38.75
73594;BME280;64760;53.404;23.498;2023-07-31T12:45:43;98882.41;;;26.21;37.29
73594;BME280;64760;53.404;23.498;2023-07-31T12:48:09;98889.00;;;26.11;37.47
73594;BME280;64760;53.404;23.498;2023-07-31T12:50:36;98902.22;;;26.09;37.83
73594;BME280;64760;53.404;23.498;2023-07-31T12:53:02;98889.03;;;26.29;37.12
73594;BME280;64760;53.404;23.498;2023-07-31T12:55:33;98887.63;;;26.57;36.37
73594;BME280;64760;53.404;23.498;2023-07-31T12:58:03;98888.41;;;26.23;37.08
73594;BME280;64760;53.404;23.498;2023-07-31T13:00:29;98890.72;;;25.99;37.36
73594;BME280;64760;53.404;23.498;2023-07-31T13:02:56;98892.94;;;26.45;36.54
73594;BME280;64760;53.404;23.498;2023-07-31T13:05:23;98886.59;;;26.18;38.20
73594;BME280;64760;53.404;23.498;2023-07-31T13:07:49;98880.16;;;26.40;38.45
73594;BME280;64760;53.404;23.498;2023-07-31T13:10:16;98888.41;;;26.40;37.98
73594;BME280;64760;53.404;23.498;2023-07-31T13:12:42;98889.75;;;26.51;37.22
73594;BME280;64760;53.404;23.498;2023-07-31T13:15:09;98886.34;;;26.54;37.62
73594;BME280;64760;53.404;23.498;2023-07-31T13:17:46;98881.63;;;26.29;37.91
73594;BME280;64760;53.404;23.498;2023-07-31T13:20:13;98883.53;;;26.29;38.14
73594;BME280;64760;53.404;23.498;2023-07-31T13:22:39;98885.34;;;26.33;37.63
73594;BME280;64760;53.404;23.498;2023-07-31T13:25:06;98882.56;;;26.25;38.39
73594;BME280;64760;53.404;23.498;2023-07-31T13:27:32;98872.78;;;26.84;37.00
73594;BME280;64760;53.404;23.498;2023-07-31T13:29:58;98887.16;;;26.63;36.65
73594;BME280;64760;53.404;23.498;2023-07-31T13:32:25;98886.78;;;26.22;37.74
73594;BME280;64760;53.404;23.498;2023-07-31T13:34:52;98884.59;;;27.01;36.76
73594;BME280;64760;53.404;23.498;2023-07-31T13:37:19;98888.44;;;26.49;37.07
73594;BME280;64760;53.404;23.498;2023-07-31T13:39:45;98885.41;;;27.02;36.63
73594;BME280;64760;53.404;23.498;2023-07-31T13:42:12;98887.31;;;26.76;36.67
73594;BME280;64760;53.404;23.498;2023-07-31T13:44:39;98874.81;;;26.27;36.56
73594;BME280;64760;53.404;23.498;2023-07-31T13:47:06;98863.69;;;26.40;35.59
73594;BME280;64760;53.404;23.498;2023-07-31T13:49:33;98883.94;;;27.22;35.05
73594;BME280;64760;53.404;23.498;2023-07-31T13:52:00;98883.09;;;26.35;36.64
73594;BME280;64760;53.404;23.498;2023-07-31T13:54:26;98883.69;;;27.44;35.15
73594;BME280;64760;53.404;23.498;2023-07-31T13:56:53;98882.34;;;26.95;35.00
73594;BME280;64760;53.404;23.498;2023-07-31T13:59:20;98863.94;;;26.13;36.66
73594;BME280;64760;53.404;23.498;2023-07-31T14:01:46;98869.94;;;26.15;37.06
73594;BME280;64760;53.404;23.498;2023-07-31T14:04:12;98884.22;;;26.60;36.54
73594;BME280;64760;53.404;23.498;2023-07-31T14:06:38;98884.44;;;27.15;35.31
73594;BME280;64760;53.404;23.498;2023-07-31T14:09:05;98886.84;;;26.82;36.12
73594;BME280;64760;53.404;23.498;2023-07-31T14:11:31;98885.72;;;27.09;34.97
73594;BME280;64760;53.404;23.498;2023-07-31T14:13:57;98875.47;;;26.41;35.06
73594;BME280;64760;53.404;23.498;2023-07-31T14:16:24;98881.78;;;27.27;33.51
73594;BME280;64760;53.404;23.498;2023-07-31T14:18:50;98890.56;;;27.21;34.34
73594;BME280;64760;53.404;23.498;2023-07-31T14:21:16;98885.50;;;27.31;33.40
73594;BME280;64760;53.404;23.498;2023-07-31T14:23:45;98888.31;;;27.14;33.80
73594;BME280;64760;53.404;23.498;2023-07-31T14:26:11;98874.22;;;27.79;32.86
73594;BME280;64760;53.404;23.498;2023-07-31T14:28:38;98886.84;;;28.47;31.91
73594;BME280;64760;53.404;23.498;2023-07-31T14:31:04;98876.75;;;28.52;32.45
73594;BME280;64760;53.404;23.498;2023-07-31T14:33:30;98875.94;;;28.30;33.01
73594;BME280;64760;53.404;23.498;2023-07-31T14:35:59;98874.56;;;28.16;32.56
73594;BME280;64760;53.404;23.498;2023-07-31T14:38:25;98866.19;;;28.33;32.68
73594;BME280;64760;53.404;23.498;2023-07-31T14:40:52;98864.19;;;28.83;31.72
73594;BME280;64760;53.404;23.498;2023-07-31T14:43:18;98876.41;;;29.48;30.62
73594;BME280;64760;53.404;23.498;2023-07-31T14:45:45;98882.31;;;29.59;29.17
73594;BME280;64760;53.404;23.498;2023-07-31T14:48:12;98863.94;;;30.48;27.66
73594;BME280;64760;53.404;23.498;2023-07-31T14:50:39;98866.78;;;30.39;28.10
73594;BME280;64760;53.404;23.498;2023-07-31T14:53:06;98867.63;;;30.15;28.77
73594;BME280;64760;53.404;23.498;2023-07-31T14:55:34;98866.50;;;29.47;29.80
73594;BME280;64760;53.404;23.498;2023-07-31T14:58:01;98870.00;;;29.68;29.50
73594;BME280;64760;53.404;23.498;2023-07-31T15:00:29;98872.56;;;29.28;29.99
73594;BME280;64760;53.404;23.498;2023-07-31T15:02:55;98872.19;;;29.63;29.47
73594;BME280;64760;53.404;23.498;2023-07-31T15:05:22;98859.06;;;29.72;29.38
73594;BME280;64760;53.404;23.498;2023-07-31T15:08:10;98878.91;;;29.29;30.34
73594;BME280;64760;53.404;23.498;2023-07-31T15:10:36;98866.34;;;29.76;29.07
73594;BME280;64760;53.404;23.498;2023-07-31T15:13:03;98859.53;;;28.96;30.03
73594;BME280;64760;53.404;23.498;2023-07-31T15:15:30;98862.16;;;28.51;30.76
73594;BME280;64760;53.404;23.498;2023-07-31T15:17:56;98866.03;;;27.62;32.33
73594;BME280;64760;53.404;23.498;2023-07-31T15:20:23;98872.03;;;28.02;31.59
73594;BME280;64760;53.404;23.498;2023-07-31T15:22:49;98884.50;;;27.44;32.35
73594;BME280;64760;53.404;23.498;2023-07-31T15:25:16;98873.22;;;27.84;31.56
73594;BME280;64760;53.404;23.498;2023-07-31T15:27:42;98874.22;;;27.79;32.08
73594;BME280;64760;53.404;23.498;2023-07-31T15:30:09;98884.38;;;27.41;33.30
73594;BME280;64760;53.404;23.498;2023-07-31T15:32:37;98876.84;;;26.95;34.28
73594;BME280;64760;53.404;23.498;2023-07-31T15:35:05;98875.66;;;27.30;33.32
73594;BME280;64760;53.404;23.498;2023-07-31T15:37:32;98870.19;;;27.13;33.78
73594;BME280;64760;53.404;23.498;2023-07-31T15:39:59;98871.06;;;27.51;33.53
73594;BME280;64760;53.404;23.498;2023-07-31T15:42:25;98871.28;;;27.84;33.00
73594;BME280;64760;53.404;23.498;2023-07-31T15:44:51;98862.34;;;27.49;33.42
73594;BME280;64760;53.404;23.498;2023-07-31T15:47:18;98863.13;;;27.59;33.06
73594;BME280;64760;53.404;23.498;2023-07-31T15:52:43;98861.13;;;28.35;31.48
73594;BME280;64760;53.404;23.498;2023-07-31T15:55:10;98867.59;;;27.72;33.46
73594;BME280;64760;53.404;23.498;2023-07-31T15:57:36;98856.34;;;27.94;33.49
73594;BME280;64760;53.404;23.498;2023-07-31T16:00:03;98856.59;;;27.72;34.05
73594;BME280;64760;53.404;23.498;2023-07-31T16:02:34;98864.97;;;27.20;34.45
73594;BME280;64760;53.404;23.498;2023-07-31T16:05:01;98851.16;;;27.46;34.33
73594;BME280;64760;53.404;23.498;2023-07-31T16:07:27;98862.13;;;28.10;32.74
73594;BME280;64760;53.404;23.498;2023-07-31T16:09:54;98859.84;;;28.32;31.98
73594;BME280;64760;53.404;23.498;2023-07-31T16:12:20;98856.81;;;27.96;31.61
73594;BME280;64760;53.404;23.498;2023-07-31T16:14:47;98850.88;;;28.15;31.55
73594;BME280;64760;53.404;23.498;2023-07-31T16:17:22;98846.72;;;27.71;32.91
73594;BME280;64760;53.404;23.498;2023-07-31T16:19:53;98842.00;;;28.09;32.87
73594;BME280;64760;53.404;23.498;2023-07-31T16:22:20;98842.50;;;27.73;32.79
73594;BME280;64760;53.404;23.498;2023-07-31T16:24:46;98851.72;;;27.77;32.37
73594;BME280;64760;53.404;23.498;2023-07-31T16:27:12;98853.53;;;26.84;34.48
73594;BME280;64760;53.404;23.498;2023-07-31T16:29:39;98867.72;;;26.34;35.55
73594;BME280;64760;53.404;23.498;2023-07-31T16:32:06;98861.28;;;26.73;34.63
73594;BME280;64760;53.404;23.498;2023-07-31T16:34:32;98858.69;;;26.42;35.76
73594;BME280;64760;53.404;23.498;2023-07-31T16:36:58;98863.22;;;26.73;35.60
73594;BME280;64760;53.404;23.498;2023-07-31T16:39:25;98857.38;;;26.23;36.43
73594;BME280;64760;53.404;23.498;2023-07-31T16:41:52;98857.91;;;25.94;36.99
73594;BME280;64760;53.404;23.498;2023-07-31T16:44:18;98857.06;;;26.41;36.40
73594;BME280;64760;53.404;23.498;2023-07-31T16:46:44;98856.75;;;26.43;36.16
73594;BME280;64760;53.404;23.498;2023-07-31T16:49:11;98860.94;;;26.40;36.56
73594;BME280;64760;53.404;23.498;2023-07-31T16:51:37;98854.50;;;26.96;35.79
73594;BME280;64760;53.404;23.498;2023-07-31T16:54:04;98862.91;;;27.08;35.11
73594;BME280;64760;53.404;23.498;2023-07-31T16:56:30;98854.50;;;27.69;34.22
73594;BME280;64760;53.404;23.498;2023-07-31T16:58:57;98853.28;;;27.40;33.36
73594;BME280;64760;53.404;23.498;2023-07-31T17:01:23;98872.72;;;27.35;33.03
73594;BME280;64760;53.404;23.498;2023-07-31T17:03:56;98866.66;;;26.87;33.94
73594;BME280;64760;53.404;23.498;2023-07-31T17:06:23;98873.91;;;26.91;34.34
73594;BME280;64760;53.404;23.498;2023-07-31T17:08:49;98873.75;;;26.71;34.69
73594;BME280;64760;53.404;23.498;2023-07-31T17:11:16;98873.22;;;26.60;34.54
73594;BME280;64760;53.404;23.498;2023-07-31T17:13:42;98872.38;;;26.25;35.11
73594;BME280;64760;53.404;23.498;2023-07-31T17:16:08;98879.19;;;26.36;35.37
73594;BME280;64760;53.404;23.498;2023-07-31T17:18:35;98863.50;;;26.28;35.42
73594;BME280;64760;53.404;23.498;2023-07-31T17:21:01;98885.53;;;25.97;36.05
73594;BME280;64760;53.404;23.498;2023-07-31T17:23:28;98881.69;;;26.07;36.42
73594;BME280;64760;53.404;23.498;2023-07-31T17:25:54;98879.88;;;25.54;37.81
73594;BME280;64760;53.404;23.498;2023-07-31T17:28:21;98885.22;;;25.37;37.73
73594;BME280;64760;53.404;23.498;2023-07-31T17:30:48;98887.28;;;25.54;37.40
73594;BME280;64760;53.404;23.498;2023-07-31T17:33:14;98893.00;;;24.91;38.35
73594;BME280;64760;53.404;23.498;2023-07-31T17:35:40;98881.56;;;24.61;39.00
73594;BME280;64760;53.404;23.498;2023-07-31T17:38:07;98885.25;;;25.15;38.17
73594;BME280;64760;53.404;23.498;2023-07-31T17:40:33;98890.38;;;25.08;38.62
73594;BME280;64760;53.404;23.498;2023-07-31T17:43:00;98896.47;;;25.05;38.31
73594;BME280;64760;53.404;23.498;2023-07-31T17:45:26;98892.00;;;24.73;39.30
73594;BME280;64760;53.404;23.498;2023-07-31T17:47:53;98904.22;;;25.03;39.09
73594;BME280;64760;53.404;23.498;2023-07-31T17:50:20;98897.50;;;25.62;38.30
73594;BME280;64760;53.404;23.498;2023-07-31T17:52:47;98887.50;;;25.66;38.09
73594;BME280;64760;53.404;23.498;2023-07-31T17:55:14;98891.06;;;25.44;38.71
73594;BME280;64760;53.404;23.498;2023-07-31T17:57:41;98895.06;;;24.71;40.02
73594;BME280;64760;53.404;23.498;2023-07-31T18:00:07;98898.19;;;24.78;39.83
73594;BME280;64760;53.404;23.498;2023-07-31T18:02:34;98894.91;;;24.76;40.07
73594;BME280;64760;53.404;23.498;2023-07-31T18:05:01;98894.44;;;24.11;42.09
73594;BME280;64760;53.404;23.498;2023-07-31T18:07:27;98899.69;;;23.94;42.10
73594;BME280;64760;53.404;23.498;2023-07-31T18:09:53;98895.84;;;23.95;42.65
73594;BME280;64760;53.404;23.498;2023-07-31T18:12:20;98900.41;;;23.72;43.41
73594;BME280;64760;53.404;23.498;2023-07-31T18:14:46;98899.66;;;23.53;43.47
73594;BME280;64760;53.404;23.498;2023-07-31T18:17:13;98902.50;;;23.16;44.38
73594;BME280;64760;53.404;23.498;2023-07-31T18:19:41;98907.91;;;23.02;45.14
73594;BME280;64760;53.404;23.498;2023-07-31T18:22:07;98905.34;;;23.24;44.98
73594;BME280;64760;53.404;23.498;2023-07-31T18:24:33;98912.47;;;23.07;45.00
73594;BME280;64760;53.404;23.498;2023-07-31T18:27:00;98903.78;;;22.86;45.59
73594;BME280;64760;53.404;23.498;2023-07-31T18:29:26;98909.25;;;22.86;46.01
73594;BME280;64760;53.404;23.498;2023-07-31T18:31:52;98905.25;;;22.60;46.46
73594;BME280;64760;53.404;23.498;2023-07-31T18:34:18;98906.88;;;22.79;46.06
73594;BME280;64760;53.404;23.498;2023-07-31T18:36:44;98906.19;;;22.50;46.78
73594;BME280;64760;53.404;23.498;2023-07-31T18:39:10;98902.88;;;22.53;47.08
73594;BME280;64760;53.404;23.498;2023-07-31T18:41:37;98909.66;;;22.37;47.28
73594;BME280;64760;53.404;23.498;2023-07-31T18:44:05;98909.53;;;22.05;48.54
73594;BME280;64760;53.404;23.498;2023-07-31T18:46:32;98916.34;;;22.26;48.50
73594;BME280;64760;53.404;23.498;2023-07-31T18:48:58;98904.91;;;22.24;48.00
73594;BME280;64760;53.404;23.498;2023-07-31T18:51:24;98911.25;;;21.95;48.61
73594;BME280;64760;53.404;23.498;2023-07-31T18:53:50;98906.44;;;21.59;50.17
73594;BME280;64760;53.404;23.498;2023-07-31T18:56:17;98910.22;;;21.91;49.32
73594;BME280;64760;53.404;23.498;2023-07-31T18:58:43;98909.91;;;21.69;50.05
73594;BME280;64760;53.404;23.498;2023-07-31T19:01:09;98909.34;;;21.67;50.04
73594;BME280;64760;53.404;23.498;2023-07-31T19:03:35;98898.22;;;21.64;50.42
73594;BME280;64760;53.404;23.498;2023-07-31T19:06:04;98897.03;;;21.70;49.86
73594;BME280;64760;53.404;23.498;2023-07-31T19:08:31;98902.19;;;21.76;50.32
73594;BME280;64760;53.404;23.498;2023-07-31T19:10:57;98905.06;;;21.61;50.57
73594;BME280;64760;53.404;23.498;2023-07-31T19:13:23;98901.88;;;21.78;49.72
73594;BME280;64760;53.404;23.498;2023-07-31T19:15:50;98898.81;;;21.84;50.26
73594;BME280;64760;53.404;23.498;2023-07-31T19:18:16;98902.88;;;21.87;50.57
73594;BME280;64760;53.404;23.498;2023-07-31T19:20:43;98904.28;;;21.84;50.98
73594;BME280;64760;53.404;23.498;2023-07-31T19:23:09;98900.69;;;21.89;50.45
73594;BME280;64760;53.404;23.498;2023-07-31T19:25:35;98902.56;;;21.93;49.96
73594;BME280;64760;53.404;23.498;2023-07-31T19:28:01;98901.16;;;21.96;50.06
73594;BME280;64760;53.404;23.498;2023-07-31T19:30:28;98907.19;;;22.17;49.77
73594;BME280;64760;53.404;23.498;2023-07-31T19:32:54;98895.91;;;22.23;49.35
73594;BME280;64760;53.404;23.498;2023-07-31T19:35:24;98902.78;;;22.21;49.56
73594;BME280;64760;53.404;23.498;2023-07-31T19:37:51;98917.13;;;22.08;50.35
73594;BME280;64760;53.404;23.498;2023-07-31T19:40:20;98896.75;;;22.00;50.43
73594;BME280;64760;53.404;23.498;2023-07-31T19:42:51;98902.63;;;21.83;51.20
73594;BME280;64760;53.404;23.498;2023-07-31T19:45:24;98903.94;;;21.62;52.98
73594;BME280;64760;53.404;23.498;2023-07-31T19:47:50;98900.38;;;21.38;53.83
73594;BME280;64760;53.404;23.498;2023-07-31T19:50:17;98912.91;;;21.39;53.47
73594;BME280;64760;53.404;23.498;2023-07-31T19:52:43;98915.06;;;21.13;54.40
73594;BME280;64760;53.404;23.498;2023-07-31T19:55:09;98917.88;;;20.98;55.50
73594;BME280;64760;53.404;23.498;2023-07-31T19:57:35;98915.00;;;20.79;56.52
73594;BME280;64760;53.404;23.498;2023-07-31T20:00:02;98917.22;;;20.77;56.07
73594;BME280;64760;53.404;23.498;2023-07-31T20:02:36;98918.88;;;20.68;56.74
73594;BME280;64760;53.404;23.498;2023-07-31T20:05:03;98918.41;;;20.56;56.60